createdAt,value
2023-04-06T00:04:43.296Z,73.02
2023-04-06T00:09:45.796Z,72.92
2023-04-06T00:14:47.463Z,72.97
2023-04-06T00:19:49.263Z,73.42
2023-04-06T00:24:51.083Z,73.39
2023-04-06T00:29:52.819Z,73.92
2023-04-06T00:34:54.444Z,73.93
2023-04-06T00:39:56.803Z,73.94
2023-04-06T00:45:00.362Z,73.78
2023-04-06T00:50:02.424Z,73.71
2023-04-06T00:55:04.988Z,73.81
2023-04-06T01:00:08.011Z,73.51
2023-04-06T01:05:11.420Z,73.32
2023-04-06T01:10:26.505Z,73.22
2023-04-06T01:15:34.879Z,72.87
2023-04-06T01:20:38.060Z,72.43
2023-04-06T01:25:39.999Z,72.12
2023-04-06T01:30:43.784Z,71.99
2023-04-06T01:35:57.667Z,72.27
2023-04-06T01:40:59.714Z,72.56
2023-04-06T01:46:05.551Z,73.07
2023-04-06T01:51:12.630Z,73.19
2023-04-06T01:56:21.348Z,73.16
2023-04-06T02:01:34.241Z,71.98
2023-04-06T02:06:36.555Z,72.17
2023-04-06T02:11:38.707Z,71.61
2023-04-06T02:16:41.282Z,71.26
2023-04-06T02:21:43.553Z,76.01
2023-04-06T02:26:45.857Z,76.90
2023-04-06T02:31:47.663Z,75.63
2023-04-06T02:36:49.516Z,74.90
2023-04-06T02:41:51.428Z,75.20
2023-04-06T02:46:56.970Z,75.64
2023-04-06T02:52:01.060Z,75.86
2023-04-06T02:57:07.241Z,76.00
2023-04-06T03:02:14.041Z,76.40
2023-04-06T03:07:16.128Z,78.03
2023-04-06T03:12:18.926Z,78.86
2023-04-06T03:17:39.780Z,78.72
2023-04-06T03:22:43.918Z,78.25
2023-04-06T03:27:47.750Z,77.70
2023-04-06T03:32:52.098Z,77.96
2023-04-06T03:37:55.686Z,77.81
2023-04-06T03:42:57.869Z,78.20
2023-04-06T03:47:59.950Z,78.52
2023-04-06T03:53:04.174Z,78.49
2023-04-06T03:58:06.467Z,79.10
2023-04-06T04:07:11.557Z,78.37
2023-04-06T04:12:13.648Z,77.76
2023-04-06T04:17:15.759Z,77.52
2023-04-06T04:22:17.602Z,77.43
2023-04-06T04:27:19.384Z,78.00
2023-04-06T04:32:24.101Z,78.06
2023-04-06T04:37:26.536Z,77.62
2023-04-06T04:42:30.481Z,77.27
2023-04-06T04:47:33.607Z,77.57
2023-04-06T04:52:36.014Z,77.44
2023-04-06T04:58:03.809Z,77.22
2023-04-06T05:03:26.066Z,76.58
2023-04-06T05:08:32.939Z,75.80
2023-04-06T05:13:35.952Z,75.38
2023-04-06T05:18:42.636Z,75.13
2023-04-06T05:23:45.081Z,74.61
2023-04-06T05:28:47.098Z,73.96
2023-04-06T05:33:49.547Z,73.55
2023-04-06T05:38:58.179Z,73.14
2023-04-06T05:44:29.167Z,72.67
2023-04-06T05:49:38.062Z,72.41
2023-04-06T05:54:42.127Z,71.65
2023-04-06T05:59:44.075Z,70.84
2023-04-06T06:04:47.126Z,69.52
2023-04-06T06:09:49.282Z,68.92
2023-04-06T06:15:01.762Z,68.63
2023-04-06T06:20:04.783Z,69.00
2023-04-06T06:25:06.964Z,69.01
2023-04-06T06:30:11.802Z,68.47
2023-04-06T06:35:16.102Z,67.30
2023-04-06T06:40:19.017Z,65.36
2023-04-06T06:45:22.681Z,65.42
2023-04-06T06:50:24.966Z,63.47
2023-04-06T06:55:27.933Z,62.48
2023-04-06T07:00:29.744Z,61.30
2023-04-06T07:05:32.445Z,59.28
2023-04-06T07:10:34.465Z,58.99
2023-04-06T07:15:36.157Z,55.89
2023-04-06T07:20:37.802Z,54.63
2023-04-06T07:25:40.035Z,52.86
2023-04-06T07:30:41.733Z,51.87
2023-04-06T07:35:44.614Z,51.48
2023-04-06T07:40:47.333Z,51.47
2023-04-06T07:45:49.575Z,51.71
2023-04-06T07:50:52.116Z,51.11
2023-04-06T07:55:54.800Z,50.71
2023-04-06T08:00:56.605Z,50.91
2023-04-06T08:05:58.446Z,50.20
2023-04-06T08:11:02.038Z,49.38
2023-04-06T08:16:04.785Z,48.94
2023-04-06T08:21:06.576Z,47.03
2023-04-06T08:26:08.381Z,46.42
2023-04-06T08:31:10.425Z,45.33
2023-04-06T08:36:14.153Z,43.87
2023-04-06T08:41:20.157Z,44.79
2023-04-06T08:46:22.008Z,45.35
2023-04-06T08:51:30.121Z,44.28
2023-04-06T08:56:32.090Z,44.17
2023-04-06T09:01:39.664Z,44.60
2023-04-06T09:06:42.060Z,46.15
2023-04-06T09:11:47.382Z,46.01
2023-04-06T09:16:49.145Z,44.45
2023-04-06T09:21:50.932Z,44.52
2023-04-06T09:26:52.647Z,44.86
2023-04-06T09:32:06.378Z,43.94
2023-04-06T09:37:19.194Z,44.19
2023-04-06T09:42:26.683Z,43.16
2023-04-06T09:47:29.908Z,43.31
2023-04-06T09:52:41.487Z,44.15
2023-04-06T09:57:53.883Z,44.01
2023-04-06T10:02:59.382Z,42.02
2023-04-06T10:08:07.319Z,42.30
2023-04-06T10:13:11.372Z,42.95
2023-04-06T10:18:14.128Z,42.15
2023-04-06T10:23:35.901Z,42.37
2023-04-06T10:28:37.859Z,42.38
2023-04-06T10:33:39.732Z,43.33
2023-04-06T10:38:42.997Z,43.60
2023-04-06T10:43:45.896Z,43.02
2023-04-06T10:48:51.067Z,43.10
2023-04-06T10:53:54.869Z,42.36
2023-04-06T10:58:59.659Z,42.27
2023-04-06T11:04:01.694Z,43.34
2023-04-06T11:09:04.936Z,43.94
2023-04-06T11:14:06.605Z,42.96
2023-04-06T11:19:08.842Z,42.97
2023-04-06T11:24:13.345Z,43.13
2023-04-06T11:29:18.325Z,43.53
2023-04-06T11:34:22.176Z,43.98
2023-04-06T11:39:28.497Z,44.35
2023-04-06T11:44:32.519Z,43.34
2023-04-06T11:49:38.332Z,42.87
2023-04-06T11:54:40.303Z,43.08
2023-04-06T11:59:42.034Z,42.41
2023-04-06T12:04:43.781Z,43.56
2023-04-06T12:09:45.760Z,43.76
2023-04-06T12:14:47.435Z,43.93
2023-04-06T12:19:49.064Z,43.66
2023-04-06T12:24:50.855Z,43.22
2023-04-06T12:29:52.637Z,44.18
2023-04-06T12:34:54.665Z,44.49
2023-04-06T12:39:56.597Z,45.14
2023-04-06T12:44:58.372Z,45.19
2023-04-06T12:50:00.636Z,45.62
2023-04-06T12:55:07.045Z,45.75
2023-04-06T13:00:09.981Z,46.02
2023-04-06T13:05:12.040Z,46.18
2023-04-06T13:10:13.764Z,46.01
2023-04-06T13:15:16.159Z,46.72
2023-04-06T13:20:18.644Z,47.11
2023-04-06T13:25:21.104Z,47.46
2023-04-06T13:30:24.005Z,47.33
2023-04-06T13:35:25.981Z,47.42
2023-04-06T13:40:27.675Z,47.69
2023-04-06T13:45:29.493Z,48.15
2023-04-06T13:50:31.551Z,49.02
2023-04-06T13:55:33.318Z,50.06
2023-04-06T14:00:35.994Z,50.57
2023-04-06T14:05:37.796Z,52.22
2023-04-06T14:10:45.753Z,53.25
2023-04-06T14:15:48.763Z,55.91
2023-04-06T14:20:57.208Z,56.75
2023-04-06T14:26:06.475Z,58.08
2023-04-06T14:31:13.136Z,59.26
2023-04-06T14:36:14.985Z,58.99
2023-04-06T14:41:18.212Z,59.29
2023-04-06T14:46:19.983Z,59.67
2023-04-06T14:51:22.316Z,58.90
2023-04-06T14:56:24.800Z,58.51
2023-04-06T15:01:26.563Z,58.33
2023-04-06T15:06:28.330Z,59.15
2023-04-06T15:11:29.978Z,60.78
2023-04-06T15:16:33.899Z,61.53
2023-04-06T15:21:36.163Z,62.05
2023-04-06T15:26:38.063Z,61.63
2023-04-06T15:31:41.023Z,60.85
2023-04-06T15:36:44.590Z,60.52
2023-04-06T15:41:46.323Z,60.71
2023-04-06T15:46:47.923Z,60.73
2023-04-06T15:51:51.669Z,61.26
2023-04-06T15:56:53.456Z,61.88
2023-04-06T16:01:55.141Z,62.02
2023-04-06T16:06:56.857Z,62.47
2023-04-06T16:11:58.580Z,63.10
2023-04-06T16:17:00.420Z,63.22
2023-04-06T16:22:02.642Z,63.23
2023-04-06T16:27:04.971Z,63.06
2023-04-06T16:32:06.977Z,63.29
2023-04-06T16:37:08.880Z,63.16
2023-04-06T16:42:10.886Z,63.22
2023-04-06T16:47:12.587Z,63.32
2023-04-06T16:52:14.426Z,63.48
2023-04-06T16:57:16.681Z,63.63
2023-04-06T17:02:18.481Z,64.08
2023-04-06T17:07:25.530Z,66.43
2023-04-06T17:12:27.300Z,69.18
2023-04-06T17:17:29.124Z,71.29
2023-04-06T17:22:31.401Z,72.91
2023-04-06T17:27:33.678Z,73.23
2023-04-06T17:32:35.738Z,74.36
2023-04-06T17:37:37.968Z,74.69
2023-04-06T17:42:39.662Z,75.88
2023-04-06T17:47:41.423Z,76.77
2023-04-06T17:52:43.048Z,76.85
2023-04-06T17:57:48.005Z,77.97
2023-04-06T18:02:54.406Z,79.15
2023-04-06T18:07:57.101Z,80.15
2023-04-06T18:13:01.378Z,80.69
2023-04-06T18:18:03.289Z,80.15
2023-04-06T18:23:05.114Z,79.80
2023-04-06T18:28:07.591Z,80.16
2023-04-06T18:33:09.264Z,80.29
2023-04-06T18:38:11.195Z,80.38
2023-04-06T18:43:13.083Z,81.03
2023-04-06T18:48:14.819Z,81.54
2023-04-06T18:53:16.767Z,81.45
2023-04-06T18:58:18.526Z,81.96
2023-04-06T19:03:22.314Z,81.41
2023-04-06T19:08:24.285Z,81.85
2023-04-06T19:13:28.682Z,81.75
2023-04-06T19:18:30.823Z,81.74
2023-04-06T19:23:33.950Z,83.07
2023-04-06T19:28:36.868Z,84.20
2023-04-06T19:33:39.359Z,84.75
2023-04-06T19:38:41.423Z,86.74
2023-04-06T19:43:43.360Z,87.24
2023-04-06T19:48:45.200Z,88.40
2023-04-06T19:53:47.939Z,89.72
2023-04-06T19:58:49.693Z,89.48
2023-04-06T20:03:51.660Z,89.54
2023-04-06T20:08:54.711Z,89.83
2023-04-06T20:13:56.542Z,89.92
2023-04-06T20:18:58.200Z,90.94
2023-04-06T20:24:00.056Z,90.65
2023-04-06T20:29:01.758Z,90.70
2023-04-06T20:34:03.471Z,91.12
2023-04-06T20:39:05.196Z,91.30
2023-04-06T20:44:07.159Z,91.20
2023-04-06T20:49:08.834Z,91.03
2023-04-06T20:54:10.705Z,91.57
2023-04-06T20:59:12.513Z,93.06
2023-04-06T21:04:14.350Z,93.61
2023-04-06T21:09:20.013Z,93.95
2023-04-06T21:14:24.169Z,94.41
2023-04-06T21:19:29.460Z,95.63
2023-04-06T21:24:31.269Z,96.12
2023-04-06T21:29:33.228Z,95.68
2023-04-06T21:34:34.982Z,95.65
2023-04-06T21:39:37.806Z,95.78
2023-04-06T21:44:41.002Z,95.91
2023-04-06T21:49:42.644Z,96.07
2023-04-06T21:54:46.028Z,96.30
2023-04-06T21:59:47.871Z,96.29
2023-04-06T22:39:45.902Z,96.00
2023-04-06T22:44:47.637Z,96.98
2023-04-06T22:49:49.258Z,98.29
2023-04-06T22:54:50.926Z,98.81
2023-04-06T22:59:52.721Z,99.12
2023-04-06T23:04:54.407Z,99.41
2023-04-06T23:09:57.502Z,99.10
2023-04-06T23:15:09.536Z,99.52
2023-04-06T23:20:11.518Z,99.86
2023-04-06T23:25:13.332Z,100.00
2023-04-06T23:30:15.771Z,100.00
2023-04-06T23:35:17.956Z,100.00
2023-04-06T23:40:24.941Z,100.00
2023-04-06T23:45:27.557Z,100.00
2023-04-06T23:50:37.875Z,100.00
2023-04-06T23:55:39.608Z,100.00
